Terminal Aerodrome Forecast
Issued by NWS Albuquerque, NM

Home | Current Version | Previous Version | Text Only | Print | Product List | Glossary On
Versions: 1 2 3 4 5 6 7 8 9 10 11 12 13 14 15 16 17
150
FTUS45 KABQ 282344 RRA
TAFABQ
TAF
KABQ 282344Z 2900/2924 VRB05KT 6SM -RA BKN020 OVC035
      TEMPO 2900/2904 5SM RA BKN015
     FM290600 36010KT 5SM BR SCT035 BKN090
     FM291200 06010KT 4SM -SN BR SCT009 OVC015
     FM291600 01010KT 6SM -RASN BR SCT015 BKN030
     FM292000 04008KT P6SM VCSH BKN035 OVC080=

USA.gov is the U.S. government's official web portal to all federal, state and local government web resources and services.